createdAt,value
2023-05-19T00:00:56.760Z,25.00
2023-05-19T00:01:56.792Z,0.00
2023-05-19T00:02:56.846Z,0.00
2023-05-19T00:03:56.747Z,0.00
2023-05-19T00:04:56.784Z,0.00
2023-05-19T00:05:56.811Z,0.00
2023-05-19T00:06:56.766Z,0.00
2023-05-19T00:07:56.766Z,0.00
2023-05-19T00:08:56.823Z,12.40
2023-05-19T00:09:56.856Z,25.83
2023-05-19T00:10:56.845Z,25.00
2023-05-19T00:11:56.873Z,25.00
2023-05-19T00:12:56.864Z,26.34
2023-05-19T00:13:56.850Z,27.10
2023-05-19T00:14:56.860Z,25.00
2023-05-19T00:15:56.924Z,25.00
2023-05-19T00:16:56.863Z,25.00
2023-05-19T00:17:56.923Z,23.62
2023-05-19T00:18:56.927Z,26.00
2023-05-19T00:19:56.883Z,25.37
2023-05-19T00:20:56.904Z,26.03
2023-05-19T00:21:56.901Z,25.00
2023-05-19T00:22:56.918Z,26.83
2023-05-19T00:23:56.915Z,27.62
2023-05-19T00:24:56.910Z,25.00
2023-05-19T00:25:56.950Z,25.86
2023-05-19T00:26:56.926Z,27.20
2023-05-19T00:27:56.958Z,29.03
2023-05-19T00:28:56.933Z,25.00
2023-05-19T00:29:56.924Z,25.00
2023-05-19T00:30:56.933Z,27.72
2023-05-19T00:31:56.969Z,26.27
2023-05-19T00:32:56.992Z,25.00
2023-05-19T00:33:56.943Z,25.59
2023-05-19T00:34:56.953Z,29.70
2023-05-19T00:35:56.957Z,26.62
2023-05-19T00:36:56.954Z,27.64
2023-05-19T00:37:56.961Z,25.00
2023-05-19T00:38:56.957Z,27.01
2023-05-19T00:39:56.958Z,26.98
2023-05-19T00:40:56.960Z,26.94
2023-05-19T00:41:56.962Z,28.34
2023-05-19T00:42:56.974Z,27.14
2023-05-19T00:43:57.007Z,27.08
2023-05-19T00:44:57.002Z,27.16
2023-05-19T00:45:57.035Z,28.14
2023-05-19T00:46:57.037Z,25.91
2023-05-19T00:47:57.063Z,25.53
2023-05-19T00:48:56.997Z,26.63
2023-05-19T00:49:57.005Z,27.04
2023-05-19T00:50:57.042Z,25.52
2023-05-19T00:51:57.005Z,28.88
2023-05-19T00:52:57.007Z,26.77
2023-05-19T00:53:57.010Z,27.71
2023-05-19T00:54:56.996Z,25.15
2023-05-19T00:55:57.025Z,25.86
2023-05-19T00:56:57.012Z,26.77
2023-05-19T00:57:57.021Z,25.54
2023-05-19T00:58:57.050Z,25.00
2023-05-19T00:59:57.052Z,27.29
2023-05-19T01:00:57.064Z,26.70
2023-05-19T01:01:57.032Z,25.19
2023-05-19T01:02:57.081Z,26.32
2023-05-19T01:03:57.158Z,29.41
2023-05-19T01:04:57.066Z,25.13
2023-05-19T01:05:57.121Z,25.53
2023-05-19T01:06:57.051Z,27.93
2023-05-19T01:07:57.151Z,25.00
2023-05-19T01:08:57.059Z,28.38
2023-05-19T01:09:57.061Z,26.41
2023-05-19T01:10:57.072Z,26.57
2023-05-19T01:11:57.072Z,27.79
2023-05-19T01:12:57.093Z,25.43
2023-05-19T01:13:57.087Z,26.58
2023-05-19T01:14:57.072Z,27.48
2023-05-19T01:15:57.142Z,25.09
2023-05-19T01:16:57.201Z,28.21
2023-05-19T01:17:57.127Z,26.86
2023-05-19T01:18:57.127Z,26.86
2023-05-19T01:19:57.105Z,26.74
2023-05-19T01:20:57.251Z,27.41
2023-05-19T01:21:57.117Z,25.88
2023-05-19T01:22:57.125Z,27.24
2023-05-19T01:23:57.171Z,25.43
2023-05-19T01:24:57.135Z,26.44
2023-05-19T01:25:57.170Z,26.14
2023-05-19T01:26:57.152Z,25.65
2023-05-19T01:27:57.147Z,27.55
2023-05-19T01:28:57.155Z,26.81
2023-05-19T01:29:57.156Z,28.51
2023-05-19T01:30:57.193Z,29.22
2023-05-19T01:31:57.245Z,28.02
2023-05-19T01:32:57.185Z,26.43
2023-05-19T01:33:57.176Z,27.79
2023-05-19T01:34:57.192Z,27.04
2023-05-19T01:35:57.198Z,25.92
2023-05-19T01:36:57.217Z,27.45
2023-05-19T01:37:57.258Z,29.27
2023-05-19T01:38:57.207Z,25.00
2023-05-19T01:39:57.209Z,27.95
2023-05-19T01:40:57.240Z,27.87
2023-05-19T01:41:57.219Z,30.22
2023-05-19T01:42:57.862Z,27.34
2023-05-19T01:43:57.228Z,29.60
2023-05-19T01:44:57.240Z,25.69
2023-05-19T01:45:57.389Z,29.46
2023-05-19T01:46:57.252Z,28.28
2023-05-19T01:47:57.342Z,29.40
2023-05-19T01:48:57.271Z,25.19
2023-05-19T01:49:57.269Z,28.09
2023-05-19T01:50:57.307Z,28.26
2023-05-19T01:51:57.274Z,26.48
2023-05-19T01:52:57.276Z,28.73
2023-05-19T01:53:57.285Z,25.96
2023-05-19T01:54:57.300Z,28.29
2023-05-19T01:55:57.319Z,28.93
2023-05-19T01:56:57.311Z,26.92
2023-05-19T01:57:57.318Z,26.41
2023-05-19T01:58:57.318Z,29.58
2023-05-19T01:59:57.324Z,26.21
2023-05-19T02:00:57.369Z,28.34
2023-05-19T02:01:57.342Z,25.62
2023-05-19T02:02:57.410Z,25.62
2023-05-19T02:03:57.444Z,25.00
2023-05-19T02:04:57.360Z,28.12
2023-05-19T02:05:57.391Z,27.51
2023-05-19T02:06:57.387Z,28.05
2023-05-19T02:07:57.406Z,25.00
2023-05-19T02:08:57.390Z,26.37
2023-05-19T02:09:57.401Z,26.03
2023-05-19T02:10:57.421Z,26.70
2023-05-19T02:11:57.399Z,27.65
2023-05-19T02:12:57.439Z,27.77
2023-05-19T02:13:57.404Z,26.96
2023-05-19T02:14:57.438Z,27.23
2023-05-19T02:15:57.430Z,29.36
2023-05-19T02:16:57.450Z,26.31
2023-05-19T02:17:57.472Z,26.53
2023-05-19T02:18:57.592Z,26.20
2023-05-19T02:19:57.623Z,28.61
2023-05-19T02:20:57.470Z,30.17
2023-05-19T02:21:57.465Z,26.79
2023-05-19T02:22:57.478Z,27.32
2023-05-19T02:23:57.458Z,28.60
2023-05-19T02:24:57.481Z,28.07
2023-05-19T02:25:57.464Z,26.96
2023-05-19T02:26:57.475Z,29.28
2023-05-19T02:27:57.482Z,26.98
2023-05-19T02:28:57.479Z,26.35
2023-05-19T02:29:57.500Z,26.45
2023-05-19T02:30:57.554Z,28.82
2023-05-19T02:31:57.517Z,27.53
2023-05-19T02:32:57.576Z,28.31
2023-05-19T02:33:57.518Z,28.24
2023-05-19T02:34:57.524Z,29.56
2023-05-19T02:35:57.564Z,29.67
2023-05-19T02:36:57.557Z,27.77
2023-05-19T02:37:57.554Z,27.91
2023-05-19T02:38:57.565Z,26.40
2023-05-19T02:39:57.578Z,27.36
2023-05-19T02:40:57.615Z,28.03
2023-05-19T02:41:57.594Z,27.27
2023-05-19T02:42:57.615Z,26.73
2023-05-19T02:43:57.626Z,26.33
2023-05-19T02:44:57.640Z,29.19
2023-05-19T02:45:57.671Z,28.88
2023-05-19T02:46:57.654Z,29.95
2023-05-19T02:47:57.664Z,30.06
2023-05-19T02:48:57.669Z,27.50
2023-05-19T02:49:57.667Z,28.07
2023-05-19T02:50:57.669Z,26.95
2023-05-19T02:51:57.705Z,29.90
2023-05-19T02:52:57.697Z,28.37
2023-05-19T02:53:57.672Z,26.79
2023-05-19T02:54:57.679Z,26.41
2023-05-19T02:55:57.706Z,27.83
2023-05-19T02:56:57.692Z,27.86
2023-05-19T02:57:57.722Z,27.58
2023-05-19T02:58:57.740Z,27.36
2023-05-19T02:59:57.720Z,28.66
2023-05-19T03:00:57.744Z,25.59
2023-05-19T03:01:57.811Z,27.62
2023-05-19T03:02:57.814Z,27.72
2023-05-19T03:03:57.818Z,26.68
2023-05-19T03:04:57.787Z,26.63
2023-05-19T03:05:57.821Z,27.22
2023-05-19T03:06:57.874Z,26.76
2023-05-19T03:07:57.844Z,26.38
2023-05-19T03:08:57.846Z,28.53
2023-05-19T03:09:57.838Z,30.40
2023-05-19T03:10:57.836Z,28.63
2023-05-19T03:11:57.852Z,28.44
2023-05-19T03:12:57.857Z,30.18
2023-05-19T03:13:57.885Z,27.91
2023-05-19T03:14:57.894Z,29.31
2023-05-19T03:15:57.945Z,26.87
2023-05-19T03:16:57.968Z,28.38
2023-05-19T03:17:58.032Z,25.51
2023-05-19T03:18:57.975Z,30.09
2023-05-19T03:19:57.928Z,26.52
2023-05-19T03:20:57.936Z,27.98
2023-05-19T03:21:57.931Z,27.05
2023-05-19T03:22:57.931Z,26.25
2023-05-19T03:23:57.961Z,26.13
2023-05-19T03:24:57.940Z,27.49
2023-05-19T03:25:57.957Z,31.69
2023-05-19T03:26:57.971Z,28.57
2023-05-19T03:27:57.999Z,27.54
2023-05-19T03:28:58.014Z,30.09
2023-05-19T03:29:58.021Z,26.98
2023-05-19T03:31:57.042Z,25.45
2023-05-19T03:32:58.101Z,26.02
2023-05-19T03:33:58.030Z,27.80
2023-05-19T03:34:58.049Z,30.47
2023-05-19T03:35:58.023Z,27.20
2023-05-19T03:36:58.027Z,28.82
2023-05-19T03:37:58.006Z,28.12
2023-05-19T03:38:57.994Z,28.91
2023-05-19T03:39:58.019Z,27.29
2023-05-19T03:40:57.995Z,27.08
2023-05-19T03:41:58.002Z,25.34
2023-05-19T03:42:57.977Z,25.00
2023-05-19T03:43:57.968Z,28.71
2023-05-19T03:44:57.970Z,27.07
2023-05-19T03:45:57.987Z,28.73
2023-05-19T03:46:57.951Z,28.83
2023-05-19T03:47:57.994Z,25.53
2023-05-19T03:48:57.937Z,25.69
2023-05-19T03:49:57.926Z,25.88
2023-05-19T03:50:57.928Z,29.23
2023-05-19T03:51:57.908Z,27.38
2023-05-19T03:52:57.902Z,27.98
2023-05-19T03:53:57.903Z,27.90
2023-05-19T03:54:57.898Z,27.01
2023-05-19T03:55:57.925Z,26.56
2023-05-19T03:56:57.945Z,25.85
2023-05-19T03:57:57.877Z,25.53
2023-05-19T03:58:57.867Z,29.84
2023-05-19T03:59:57.881Z,27.87
2023-05-19T04:00:57.851Z,27.25
2023-05-19T04:01:57.955Z,25.30
2023-05-19T04:02:57.948Z,27.58
2023-05-19T04:03:57.866Z,25.94
2023-05-19T04:04:57.952Z,26.37
2023-05-19T04:05:57.836Z,29.55
2023-05-19T04:06:57.826Z,28.14
2023-05-19T04:07:57.811Z,27.96
2023-05-19T04:08:57.817Z,27.89
2023-05-19T04:09:57.793Z,28.66
2023-05-19T04:10:57.790Z,27.37
2023-05-19T04:11:57.814Z,29.65
2023-05-19T04:12:57.789Z,27.16
2023-05-19T04:13:57.782Z,28.19
2023-05-19T04:14:57.760Z,27.21
2023-05-19T04:15:57.799Z,25.76
2023-05-19T04:16:57.757Z,26.25
2023-05-19T04:17:57.765Z,26.54
2023-05-19T04:18:57.758Z,28.67
2023-05-19T04:19:57.729Z,27.05
2023-05-19T04:20:57.728Z,26.90
2023-05-19T04:21:57.711Z,29.06
2023-05-19T04:22:57.707Z,26.86
2023-05-19T04:23:57.699Z,26.32
2023-05-19T04:24:57.690Z,27.61
2023-05-19T04:25:57.757Z,27.53
2023-05-19T04:26:57.680Z,28.66
2023-05-19T04:27:57.745Z,26.85
2023-05-19T04:28:57.667Z,28.40
2023-05-19T04:29:57.665Z,26.24
2023-05-19T04:30:57.749Z,25.61
2023-05-19T04:31:57.677Z,26.98
2023-05-19T04:32:57.712Z,28.30
2023-05-19T04:33:57.652Z,28.73
2023-05-19T04:34:57.639Z,27.96
2023-05-19T04:35:57.635Z,28.91
2023-05-19T04:36:57.630Z,27.45
2023-05-19T04:37:57.619Z,27.48
2023-05-19T04:38:57.612Z,28.01
2023-05-19T04:39:57.611Z,27.27
2023-05-19T04:40:57.607Z,27.53
2023-05-19T04:41:57.595Z,29.94
2023-05-19T04:42:57.593Z,26.47
2023-05-19T04:43:57.607Z,26.07
2023-05-19T04:44:57.581Z,26.51
2023-05-19T04:45:57.569Z,27.26
2023-05-19T04:46:57.630Z,26.73
2023-05-19T04:47:57.610Z,28.44
2023-05-19T04:48:57.551Z,28.37
2023-05-19T04:49:57.543Z,27.42
2023-05-19T04:50:57.543Z,27.99
2023-05-19T04:51:57.528Z,27.73
2023-05-19T04:52:57.528Z,27.77
2023-05-19T04:53:57.524Z,28.96
2023-05-19T04:54:57.520Z,26.61
2023-05-19T04:55:57.533Z,29.03
2023-05-19T04:56:57.550Z,27.41
2023-05-19T04:57:57.565Z,28.58
2023-05-19T04:58:57.569Z,29.09
2023-05-19T04:59:57.607Z,26.70
2023-05-19T05:00:57.569Z,27.08
2023-05-19T05:01:57.593Z,28.17
2023-05-19T05:02:58.647Z,28.34
2023-05-19T05:03:57.635Z,25.79
2023-05-19T05:04:57.605Z,27.08
2023-05-19T05:05:57.611Z,26.92
2023-05-19T05:06:57.620Z,25.00
2023-05-19T05:07:57.617Z,28.05
2023-05-19T05:08:57.620Z,29.66
2023-05-19T05:09:57.640Z,28.62
2023-05-19T05:10:57.641Z,29.42
2023-05-19T05:11:57.649Z,26.63
2023-05-19T05:12:57.670Z,28.43
2023-05-19T05:13:57.668Z,26.94
2023-05-19T05:14:57.668Z,25.92
2023-05-19T05:15:57.768Z,26.66
2023-05-19T05:16:57.674Z,28.07
2023-05-19T05:17:57.782Z,25.42
2023-05-19T05:18:57.746Z,27.83
2023-05-19T05:19:57.678Z,26.68
2023-05-19T05:20:57.679Z,26.87
2023-05-19T05:21:57.698Z,27.13
2023-05-19T05:22:57.708Z,29.42
2023-05-19T05:23:57.694Z,28.73
2023-05-19T05:24:57.707Z,27.92
2023-05-19T05:25:57.719Z,26.96
2023-05-19T05:26:57.707Z,25.00
2023-05-19T05:27:57.716Z,27.43
2023-05-19T05:28:57.708Z,28.10
2023-05-19T05:29:59.207Z,30.00
2023-05-19T05:30:57.856Z,28.96
2023-05-19T05:31:57.977Z,26.84
2023-05-19T05:32:57.982Z,29.26
2023-05-19T05:33:57.863Z,30.01
2023-05-19T05:34:57.888Z,26.67
2023-05-19T05:35:57.869Z,26.89
2023-05-19T05:36:57.880Z,27.44
2023-05-19T05:37:57.867Z,26.71
2023-05-19T05:38:57.869Z,25.84
2023-05-19T05:39:57.868Z,29.92
2023-05-19T05:40:57.874Z,26.50
2023-05-19T05:41:57.900Z,27.09
2023-05-19T05:42:57.876Z,26.95
2023-05-19T05:43:57.882Z,28.66
2023-05-19T05:44:57.919Z,26.57
2023-05-19T05:45:57.945Z,28.03
2023-05-19T05:46:57.896Z,27.98
2023-05-19T05:47:57.957Z,28.40
2023-05-19T05:48:57.905Z,28.13
2023-05-19T05:49:57.917Z,25.00
2023-05-19T05:50:57.921Z,25.52
2023-05-19T05:52:05.542Z,28.12
2023-05-19T05:52:57.921Z,28.49
2023-05-19T05:53:57.953Z,29.35
2023-05-19T05:54:57.896Z,29.81
2023-05-19T05:55:57.911Z,29.49
2023-05-19T05:56:57.887Z,30.77
2023-05-19T05:57:57.897Z,29.51
2023-05-19T05:58:57.874Z,30.02
2023-05-19T05:59:57.882Z,27.90
2023-05-19T06:00:57.863Z,31.36
2023-05-19T06:01:57.921Z,28.43
2023-05-19T06:02:57.904Z,25.61
2023-05-19T06:03:57.892Z,31.92
2023-05-19T06:04:57.911Z,30.70
2023-05-19T06:05:57.936Z,31.40
2023-05-19T06:06:57.837Z,29.29
2023-05-19T06:07:57.853Z,27.07
2023-05-19T06:08:57.849Z,29.08
2023-05-19T06:09:57.832Z,31.78
2023-05-19T06:10:57.832Z,28.82
2023-05-19T06:11:57.809Z,31.45
2023-05-19T06:12:57.789Z,30.35
2023-05-19T06:13:57.787Z,28.82
2023-05-19T06:14:57.790Z,28.45
2023-05-19T06:15:59.252Z,30.77
2023-05-19T06:16:57.768Z,30.99
2023-05-19T06:17:57.801Z,31.09
2023-05-19T06:18:57.806Z,30.86
2023-05-19T06:19:57.777Z,29.90
2023-05-19T06:20:57.742Z,30.71
2023-05-19T06:21:57.729Z,30.09
2023-05-19T06:22:57.719Z,28.49
2023-05-19T06:23:57.752Z,27.90
2023-05-19T06:24:57.730Z,26.43
2023-05-19T06:25:57.735Z,26.51
2023-05-19T06:26:57.696Z,28.56
2023-05-19T06:27:57.684Z,26.31
2023-05-19T06:28:57.679Z,26.97
2023-05-19T06:29:57.675Z,26.51
2023-05-19T06:30:57.711Z,28.29
2023-05-19T06:31:57.718Z,25.00
2023-05-19T06:32:57.735Z,29.80
2023-05-19T06:33:57.678Z,28.87
2023-05-19T06:34:57.644Z,28.82
2023-05-19T06:35:57.733Z,28.72
2023-05-19T06:36:57.640Z,29.83
2023-05-19T06:37:57.626Z,29.24
2023-05-19T06:38:57.636Z,26.75
2023-05-19T06:39:57.622Z,27.13
2023-05-19T06:40:57.613Z,29.13
2023-05-19T06:41:57.658Z,29.27
2023-05-19T06:42:57.594Z,29.57
2023-05-19T06:43:57.584Z,28.96
2023-05-19T06:44:57.588Z,28.86
2023-05-19T06:45:57.576Z,27.90
2023-05-19T06:46:57.623Z,28.08
2023-05-19T06:47:57.583Z,29.11
2023-05-19T06:48:57.571Z,28.21
2023-05-19T06:49:57.555Z,28.44
2023-05-19T06:50:57.563Z,30.01
2023-05-19T06:51:57.564Z,30.06
2023-05-19T06:52:57.535Z,28.67
2023-05-19T06:53:57.541Z,27.22
2023-05-19T06:54:57.522Z,30.11
2023-05-19T06:55:59.536Z,29.48
2023-05-19T06:56:57.516Z,29.70
2023-05-19T06:57:57.502Z,30.10
2023-05-19T06:58:57.496Z,30.77
2023-05-19T06:59:57.492Z,30.04
2023-05-19T07:00:57.493Z,30.60
2023-05-19T07:01:57.510Z,29.85
2023-05-19T07:02:57.596Z,29.53
2023-05-19T07:03:57.596Z,29.52
2023-05-19T07:04:57.470Z,29.76
2023-05-19T07:05:57.452Z,29.75
2023-05-19T07:06:57.444Z,29.93
2023-05-19T07:07:57.521Z,29.45
2023-05-19T07:08:57.433Z,29.55
2023-05-19T07:09:57.437Z,30.93
2023-05-19T07:10:57.430Z,30.03
2023-05-19T07:11:57.416Z,28.64
2023-05-19T07:12:57.404Z,30.05
2023-05-19T07:13:57.400Z,30.29
2023-05-19T07:14:57.396Z,30.55
2023-05-19T07:15:57.441Z,31.60
2023-05-19T07:16:57.370Z,30.66
2023-05-19T07:17:57.431Z,28.72
2023-05-19T07:18:57.484Z,31.01
2023-05-19T07:19:57.359Z,31.39
2023-05-19T07:20:57.354Z,28.38
2023-05-19T07:21:57.350Z,30.68
2023-05-19T07:22:57.369Z,32.07
2023-05-19T07:23:57.364Z,31.85
2023-05-19T07:24:57.325Z,31.62
2023-05-19T07:25:57.314Z,31.24
2023-05-19T07:26:57.323Z,31.42
2023-05-19T07:27:57.311Z,32.80
2023-05-19T07:28:57.305Z,31.75
2023-05-19T07:29:57.287Z,32.12
2023-05-19T07:30:57.283Z,33.19
2023-05-19T07:31:57.300Z,30.24
2023-05-19T07:32:57.310Z,32.13
2023-05-19T07:33:57.281Z,31.50
2023-05-19T07:34:57.267Z,30.94
2023-05-19T07:35:57.259Z,30.59
2023-05-19T07:36:57.266Z,31.05
2023-05-19T07:37:57.241Z,33.11
2023-05-19T07:38:57.257Z,32.81
2023-05-19T07:39:57.276Z,32.36
2023-05-19T07:40:57.223Z,33.28
2023-05-19T07:41:57.217Z,30.85
2023-05-19T07:42:57.198Z,33.86
2023-05-19T07:43:57.202Z,32.10
2023-05-19T07:44:57.186Z,30.75
2023-05-19T07:45:57.216Z,30.78
2023-05-19T07:46:57.193Z,32.35
2023-05-19T07:47:57.253Z,34.69
2023-05-19T07:48:57.159Z,32.66
2023-05-19T07:49:57.156Z,33.02
2023-05-19T07:50:57.158Z,31.69
2023-05-19T07:51:57.176Z,33.72
2023-05-19T07:52:57.155Z,34.98
2023-05-19T07:53:57.131Z,34.46
2023-05-19T07:54:57.135Z,33.59
2023-05-19T07:55:58.673Z,33.20
2023-05-19T07:56:57.119Z,38.17
2023-05-19T07:57:57.107Z,40.12
2023-05-19T07:58:57.133Z,38.31
2023-05-19T07:59:57.091Z,35.61
2023-05-19T08:00:57.094Z,35.22
2023-05-19T08:01:57.074Z,35.20
2023-05-19T08:02:57.258Z,33.98
2023-05-19T08:03:57.172Z,34.98
2023-05-19T08:04:57.147Z,34.31
2023-05-19T08:05:57.044Z,34.88
2023-05-19T08:06:57.045Z,36.78
2023-05-19T08:07:57.039Z,36.52
2023-05-19T08:08:57.033Z,35.80
2023-05-19T08:09:57.028Z,38.00
2023-05-19T08:10:57.023Z,35.71
2023-05-19T08:11:57.066Z,34.70
2023-05-19T08:12:57.014Z,37.06
2023-05-19T08:13:57.004Z,35.52
2023-05-19T08:14:58.853Z,38.89
2023-05-19T08:15:57.083Z,39.14
2023-05-19T08:16:56.996Z,39.18
2023-05-19T08:17:57.011Z,39.18
2023-05-19T08:18:57.031Z,38.15
2023-05-19T08:19:57.012Z,39.22
2023-05-19T08:20:56.961Z,37.77
2023-05-19T08:21:56.957Z,38.04
2023-05-19T08:22:56.965Z,37.55
2023-05-19T08:23:56.995Z,38.48
2023-05-19T08:24:56.958Z,36.95
2023-05-19T08:25:56.936Z,39.08
2023-05-19T08:26:56.933Z,37.99
2023-05-19T08:27:56.960Z,39.20
2023-05-19T08:28:56.917Z,38.65
2023-05-19T08:29:56.901Z,35.59
2023-05-19T08:30:56.935Z,36.37
2023-05-19T08:32:55.909Z,36.93
2023-05-19T08:33:56.873Z,34.81
2023-05-19T08:34:56.876Z,37.11
2023-05-19T08:35:56.876Z,38.19
2023-05-19T08:36:56.869Z,35.25
2023-05-19T08:37:56.859Z,38.30
2023-05-19T08:38:56.854Z,38.21
2023-05-19T08:39:56.836Z,36.78
2023-05-19T08:40:56.821Z,36.46
2023-05-19T08:41:56.830Z,40.73
2023-05-19T08:42:56.821Z,38.46
2023-05-19T08:43:56.827Z,40.72
2023-05-19T08:44:56.808Z,39.84
2023-05-19T08:45:56.800Z,38.40
2023-05-19T08:46:56.830Z,39.95
2023-05-19T08:47:56.863Z,37.81
2023-05-19T08:48:56.773Z,37.31
2023-05-19T08:49:56.762Z,39.68
2023-05-19T08:50:56.762Z,41.17
2023-05-19T08:51:56.751Z,36.93
2023-05-19T08:52:56.744Z,37.30
2023-05-19T08:53:56.732Z,38.74
2023-05-19T08:54:56.717Z,40.57
2023-05-19T08:55:56.707Z,40.51
2023-05-19T08:56:56.701Z,40.19
2023-05-19T08:57:56.710Z,39.45
2023-05-19T08:58:56.701Z,39.38
2023-05-19T08:59:56.711Z,38.64
2023-05-19T09:00:56.767Z,41.38
2023-05-19T09:01:56.705Z,42.71
2023-05-19T09:03:05.954Z,40.52
2023-05-19T09:03:56.726Z,40.97
2023-05-19T09:04:56.710Z,41.84
2023-05-19T09:05:56.736Z,42.14
2023-05-19T09:06:56.641Z,43.01
2023-05-19T09:07:56.648Z,44.64
2023-05-19T09:08:56.631Z,43.59
2023-05-19T09:09:56.663Z,43.41
2023-05-19T09:10:56.625Z,42.48
2023-05-19T09:11:56.612Z,41.68
2023-05-19T09:12:56.603Z,42.40
2023-05-19T09:13:56.594Z,43.19
2023-05-19T09:14:56.621Z,41.79
2023-05-19T09:15:56.639Z,42.75
2023-05-19T09:16:56.625Z,43.91
2023-05-19T09:17:56.597Z,43.41
2023-05-19T09:18:56.824Z,43.23
2023-05-19T09:19:56.564Z,43.92
2023-05-19T09:20:56.551Z,44.97
2023-05-19T09:21:56.544Z,40.91
2023-05-19T09:22:56.546Z,42.72
2023-05-19T09:23:56.526Z,41.04
2023-05-19T09:24:56.520Z,43.97
2023-05-19T09:25:57.210Z,44.58
2023-05-19T09:26:57.752Z,42.42
2023-05-19T09:27:56.508Z,42.73
2023-05-19T09:28:56.501Z,43.36
2023-05-19T09:29:56.490Z,43.46
2023-05-19T09:30:56.493Z,44.38
2023-05-19T09:31:56.552Z,47.08
2023-05-19T09:32:56.533Z,47.51
2023-05-19T09:33:56.464Z,44.70
2023-05-19T09:34:56.462Z,45.39
2023-05-19T09:35:56.451Z,45.68
2023-05-19T09:36:56.442Z,43.15
2023-05-19T09:37:56.456Z,46.49
2023-05-19T09:38:56.434Z,45.22
2023-05-19T09:39:56.432Z,44.83
2023-05-19T09:40:56.428Z,43.72
2023-05-19T09:41:56.423Z,44.87
2023-05-19T09:42:56.407Z,46.38
2023-05-19T09:43:56.408Z,43.16
2023-05-19T09:44:56.406Z,45.38
2023-05-19T09:45:56.441Z,46.77
2023-05-19T09:46:56.387Z,46.83
2023-05-19T09:47:56.416Z,43.13
2023-05-19T09:49:16.289Z,25.00
2023-05-19T09:50:17.322Z,25.00
2023-05-19T09:51:17.284Z,25.00
2023-05-19T09:52:17.275Z,25.00
2023-05-19T09:53:17.264Z,25.00
2023-05-19T09:54:17.274Z,27.62
2023-05-19T09:55:17.247Z,25.63
2023-05-19T09:56:17.237Z,24.78
2023-05-19T09:57:17.242Z,26.89
2023-05-19T09:58:17.232Z,28.33
2023-05-19T09:59:17.227Z,28.05
2023-05-19T10:00:17.261Z,28.58
2023-05-19T10:01:17.242Z,28.69
2023-05-19T10:02:17.194Z,26.38
2023-05-19T10:03:17.283Z,28.53
2023-05-19T10:04:17.186Z,28.15
2023-05-19T10:05:17.499Z,28.21
2023-05-19T10:06:17.176Z,28.98
2023-05-19T10:07:17.165Z,30.30
2023-05-19T10:08:17.162Z,27.58
2023-05-19T10:09:17.150Z,28.96
2023-05-19T10:10:17.186Z,28.50
2023-05-19T10:11:17.147Z,25.70
2023-05-19T10:12:17.134Z,27.59
2023-05-19T10:13:17.130Z,28.84
2023-05-19T10:14:17.123Z,30.37
2023-05-19T10:15:17.115Z,28.91
2023-05-19T10:16:17.150Z,29.88
2023-05-19T10:17:17.104Z,31.96
2023-05-19T10:18:17.093Z,28.93
2023-05-19T10:19:17.161Z,30.76
2023-05-19T10:20:17.154Z,30.01
2023-05-19T10:21:17.104Z,31.06
2023-05-19T10:22:17.073Z,27.26
2023-05-19T10:23:17.086Z,30.58
2023-05-19T10:24:17.059Z,29.19
2023-05-19T10:25:17.056Z,31.19
2023-05-19T10:26:17.048Z,29.52
2023-05-19T10:27:17.037Z,31.18
2023-05-19T10:28:17.029Z,30.58
2023-05-19T10:29:17.023Z,31.48
2023-05-19T10:30:17.026Z,28.91
2023-05-19T10:31:17.014Z,31.33
2023-05-19T10:32:17.066Z,30.56
2023-05-19T10:33:17.029Z,30.17
2023-05-19T10:34:16.995Z,31.94
2023-05-19T10:35:17.018Z,32.32
2023-05-19T10:36:16.987Z,33.13
2023-05-19T10:37:16.971Z,35.51
2023-05-19T10:38:16.974Z,33.05
2023-05-19T10:39:16.959Z,33.58
2023-05-19T10:40:16.978Z,33.53
2023-05-19T10:41:16.944Z,32.55
2023-05-19T10:42:16.956Z,30.61
2023-05-19T10:43:16.944Z,32.96
2023-05-19T10:44:16.923Z,35.20
2023-05-19T10:45:16.920Z,31.73
2023-05-19T10:46:16.968Z,34.76
2023-05-19T10:47:16.964Z,35.60
2023-05-19T10:48:16.992Z,32.73
2023-05-19T10:49:16.891Z,32.35
2023-05-19T10:50:16.881Z,32.93
2023-05-19T10:51:16.897Z,36.51
2023-05-19T10:52:16.873Z,33.70
2023-05-19T10:53:16.875Z,35.85
2023-05-19T10:54:16.853Z,34.43
2023-05-19T10:55:16.850Z,36.51
2023-05-19T10:56:16.841Z,35.58
2023-05-19T10:57:16.837Z,35.67
2023-05-19T10:58:16.829Z,33.86
2023-05-19T10:59:16.826Z,33.24
2023-05-19T11:00:16.825Z,34.82
2023-05-19T11:01:16.852Z,36.28
2023-05-19T11:02:16.978Z,34.86
2023-05-19T11:03:16.822Z,36.45
2023-05-19T11:04:16.863Z,36.20
2023-05-19T11:05:16.935Z,37.27
2023-05-19T11:06:16.843Z,36.24
2023-05-19T11:07:16.878Z,34.36
2023-05-19T11:08:16.869Z,35.60
2023-05-19T11:09:16.855Z,36.27
2023-05-19T11:10:16.855Z,36.27
2023-05-19T11:11:16.857Z,38.88
2023-05-19T11:12:16.864Z,32.95
2023-05-19T11:13:16.888Z,40.13
2023-05-19T11:14:16.960Z,37.88
2023-05-19T11:15:17.016Z,35.11
2023-05-19T11:16:17.109Z,40.06
2023-05-19T11:17:17.138Z,37.05
2023-05-19T11:18:17.217Z,37.62
2023-05-19T11:19:17.322Z,37.39
2023-05-19T11:20:17.313Z,38.12
2023-05-19T11:21:17.424Z,36.10
2023-05-19T11:22:17.429Z,39.24
2023-05-19T11:23:17.561Z,40.25
2023-05-19T11:24:17.548Z,39.62
2023-05-19T11:25:17.621Z,38.86
2023-05-19T11:26:17.605Z,37.22
2023-05-19T11:27:17.621Z,38.40
2023-05-19T11:28:17.666Z,40.97
2023-05-19T11:29:17.671Z,37.70
2023-05-19T11:30:17.741Z,38.14
2023-05-19T11:31:17.746Z,37.37
2023-05-19T11:32:17.817Z,35.92
2023-05-19T11:33:17.788Z,40.81
2023-05-19T11:34:17.754Z,40.96
2023-05-19T11:35:17.735Z,38.82
2023-05-19T11:36:17.730Z,40.50
2023-05-19T11:37:17.751Z,38.87
2023-05-19T11:38:17.768Z,38.96
2023-05-19T11:39:17.804Z,38.76
2023-05-19T11:40:17.804Z,39.27
2023-05-19T11:41:19.484Z,40.27
2023-05-19T11:42:17.802Z,47.17
2023-05-19T11:43:17.786Z,41.04
2023-05-19T11:44:17.790Z,40.43
2023-05-19T11:45:17.779Z,41.71
2023-05-19T11:46:17.799Z,39.52
2023-05-19T11:47:17.758Z,39.92
2023-05-19T11:48:17.783Z,37.44
2023-05-19T11:49:17.753Z,42.03
2023-05-19T11:50:17.742Z,38.74
2023-05-19T11:51:17.736Z,42.21
2023-05-19T11:52:17.732Z,40.45
2023-05-19T11:53:17.724Z,41.21
2023-05-19T11:54:17.716Z,42.15
2023-05-19T11:55:17.781Z,40.27
2023-05-19T11:56:17.716Z,39.36
2023-05-19T11:57:17.693Z,38.00
2023-05-19T11:58:17.710Z,38.74
2023-05-19T11:59:17.690Z,39.40
2023-05-19T12:00:17.671Z,41.71
2023-05-19T12:01:17.673Z,38.89
2023-05-19T12:02:17.675Z,40.89
2023-05-19T12:03:17.874Z,39.85
2023-05-19T12:04:17.664Z,42.99
2023-05-19T12:05:17.730Z,42.29
2023-05-19T12:06:17.669Z,38.36
2023-05-19T12:07:17.660Z,39.49
2023-05-19T12:08:17.614Z,41.26
2023-05-19T12:09:17.618Z,38.20
2023-05-19T12:10:17.604Z,40.36
2023-05-19T12:11:18.863Z,40.62
2023-05-19T12:12:17.599Z,40.78
2023-05-19T12:13:17.586Z,41.50
2023-05-19T12:14:17.583Z,41.37
2023-05-19T12:15:17.571Z,42.49
2023-05-19T12:16:17.586Z,42.48
2023-05-19T12:17:17.562Z,42.25
2023-05-19T12:18:17.559Z,42.77
2023-05-19T12:19:17.584Z,40.81
2023-05-19T12:20:17.540Z,42.96
2023-05-19T12:21:17.539Z,41.99
2023-05-19T12:22:17.563Z,43.57
2023-05-19T12:23:17.544Z,43.66
2023-05-19T12:24:17.519Z,43.34
2023-05-19T12:25:17.513Z,43.68
2023-05-19T12:26:17.510Z,42.28
2023-05-19T12:27:17.526Z,40.77
2023-05-19T12:28:17.494Z,43.42
2023-05-19T12:29:17.481Z,42.58
2023-05-19T12:30:17.489Z,42.11
2023-05-19T12:31:17.514Z,43.22
2023-05-19T12:32:17.464Z,43.18
2023-05-19T12:33:17.473Z,42.78
2023-05-19T12:34:17.454Z,44.01
2023-05-19T12:35:17.445Z,42.62
2023-05-19T12:36:17.439Z,42.34
2023-05-19T12:37:17.435Z,44.85
2023-05-19T12:38:17.427Z,43.23
2023-05-19T12:39:18.468Z,43.59
2023-05-19T12:40:17.464Z,47.84
2023-05-19T12:41:17.402Z,50.61
2023-05-19T12:42:17.393Z,46.07
2023-05-19T12:43:17.478Z,46.37
2023-05-19T12:44:17.379Z,45.00
2023-05-19T12:45:17.377Z,47.18
2023-05-19T12:46:17.517Z,46.83
2023-05-19T12:47:17.374Z,45.28
2023-05-19T12:48:17.442Z,45.62
2023-05-19T12:49:17.360Z,41.52
2023-05-19T12:50:17.365Z,41.45
2023-05-19T12:51:17.338Z,41.63
2023-05-19T12:52:17.339Z,44.36
2023-05-19T12:53:17.321Z,42.87
2023-05-19T12:54:17.356Z,44.01
2023-05-19T12:55:17.313Z,42.95